Time;durP1;ratioP1;P1;durP2;ratioP2;P2;SDS_P1;SDS_P2;PMS_P1;PMS_P2;Temp;Humidity;BMP_temperature;BMP_pressure;BME280_temperature;BME280_humidity;BME280_pressure;Samples;Min_cycle;Max_cycle;Signal;HPM_P1;HPM_P2
2023/03/10 00:01:00;;;;;;;;;;;;;;;;;;5013174;28;19918;-83
2023/03/10 00:03:47;;;;;;;;;;;;;;;;;;5021325;28;19921;-83
2023/03/10 00:06:33;;;;;;;;;;;;;;;;;;5018287;28;19949;-84
2023/03/10 00:09:20;;;;;;;;;;;;;;;;;;5014583;28;20258;-83
2023/03/10 00:12:06;;;;;;;;;;;;;;;;;;5011781;28;19932;-83
2023/03/10 00:14:53;;;;;;;;;;;;;;;;;;5017740;28;19921;-82
2023/03/10 00:17:40;;;;;;;;;;;;;;;;;;5011949;28;20456;-82
2023/03/10 00:20:26;;;;;;;;;;;;;;;;;;5014543;28;19913;-83
2023/03/10 00:23:13;;;;;;;;;;;;;;;;;;5022461;28;19921;-82
2023/03/10 00:25:59;;;;;;;;;;;;;;;;;;5016785;28;19924;-82
2023/03/10 00:28:46;;;;;;;;;;;;;;;;;;5012634;28;19924;-82
2023/03/10 00:31:33;;;;;;;;;;;;;;;;;;5021200;28;19924;-83
2023/03/10 00:34:20;;;;;;;;;;;;;;;;;;5018014;28;19917;-82
2023/03/10 00:37:06;;;;;;;;;;;;;;;;;;5017271;28;19944;-82
2023/03/10 00:39:53;;;;;;;;;;;;;;;;;;5021975;28;19925;-83
2023/03/10 00:42:39;;;;;;;;;;;;;;;;;;5012891;28;19923;-83
2023/03/10 00:45:25;;;;;;;;;;;;;;;;;;5015582;28;19921;-83
2023/03/10 00:48:12;;;;;;;;;;;;;;;;;;5010687;28;20296;-83
2023/03/10 00:50:58;;;;;;;;;;;;;;;;;;5014990;28;19947;-83
2023/03/10 00:53:45;;;;;;;;;;;;;;;;;;5021901;28;20372;-83
2023/03/10 00:56:31;;;;;;;;;;;;;;;;;;5018716;28;19913;-83
2023/03/10 00:59:18;;;;;;;;;;;;;;;;;;5016054;28;19980;-83
2023/03/10 01:02:04;;;;;;;;;;;;;;;;;;5021557;28;19917;-83
2023/03/10 01:04:51;;;;;;;;;;;;;;;;;;5006755;28;19925;-83
2023/03/10 01:07:37;;;;;;;;;;;;;;;;;;5017479;28;19913;-83
2023/03/10 01:10:24;;;;;;;;;;;;;;;;;;5016829;28;19917;-82
2023/03/10 01:13:10;;;;;;;;;;;;;;;;;;5019175;28;19939;-82
2023/03/10 01:15:57;;;;;;;;;;;;;;;;;;5020030;28;19913;-82
2023/03/10 01:18:43;;;;;;;;;;;;;;;;;;5013373;28;19952;-82
2023/03/10 01:21:30;;;;;;;;;;;;;;;;;;5019070;28;19917;-82
2023/03/10 01:24:16;;;;;;;;;;;;;;;;;;5017059;28;19929;-81
2023/03/10 01:27:03;;;;;;;;;;;;;;;;;;5016253;28;20540;-82
2023/03/10 01:29:49;;;;;;;;;;;;;;;;;;5013385;28;19963;-83
2023/03/10 01:32:37;;;;;;;;;;;;;;;;;;5012692;28;19934;-83
2023/03/10 01:35:23;;;;;;;;;;;;;;;;;;5007549;28;19917;-83
2023/03/10 01:38:10;;;;;;;;;;;;;;;;;;5015547;28;19932;-81
2023/03/10 01:40:56;;;;;;;;;;;;;;;;;;5015483;28;19917;-83
2023/03/10 01:43:43;;;;;;;;;;;;;;;;;;5021743;28;19925;-84
2023/03/10 01:46:29;;;;;;;;;;;;;;;;;;5013545;28;20388;-83
2023/03/10 01:49:16;;;;;;;;;;;;;;;;;;5017267;28;19921;-83
2023/03/10 01:52:02;;;;;;;;;;;;;;;;;;5017787;28;19921;-84
2023/03/10 01:54:49;;;;;;;;;;;;;;;;;;5012907;28;20495;-84
2023/03/10 01:57:36;;;;;;;;;;;;;;;;;;5014771;28;19931;-83
2023/03/10 02:00:22;;;;;;;;;;;;;;;;;;5013299;28;19917;-81
2023/03/10 02:03:09;;;;;;;;;;;;;;;;;;5022103;28;20292;-82
2023/03/10 02:05:55;;;;;;;;;;;;;;;;;;5019253;28;20204;-83
2023/03/10 02:08:42;;;;;;;;;;;;;;;;;;5020160;28;19913;-83
2023/03/10 02:11:28;;;;;;;;;;;;;;;;;;5005355;28;19924;-83
2023/03/10 02:14:15;;;;;;;;;;;;;;;;;;5008376;28;19924;-82
2023/03/10 02:17:01;;;;;;;;;;;;;;;;;;5020108;28;19917;-82
2023/03/10 02:19:48;;;;;;;;;;;;;;;;;;5018281;28;19939;-82
2023/03/10 02:22:34;;;;;;;;;;;;;;;;;;5012343;28;20376;-83
2023/03/10 02:25:21;;;;;;;;;;;;;;;;;;5019424;28;19920;-83
2023/03/10 02:28:07;;;;;;;;;;;;;;;;;;5019651;28;19921;-82
2023/03/10 02:30:53;;;;;;;;;;;;;;;;;;5012908;28;19917;-83
2023/03/10 02:33:40;;;;;;;;;;;;;;;;;;5016866;28;19913;-83
2023/03/10 02:36:27;;;;;;;;;;;;;;;;;;5020409;28;19920;-82
2023/03/10 02:39:13;;;;;;;;;;;;;;;;;;5016143;28;19944;-83
2023/03/10 02:42:00;;;;;;;;;;;;;;;;;;5021552;28;20242;-82
2023/03/10 02:44:46;;;;;;;;;;;;;;;;;;5005688;28;19924;-83
2023/03/10 02:47:33;;;;;;;;;;;;;;;;;;5016927;28;19924;-82
2023/03/10 02:50:19;;;;;;;;;;;;;;;;;;5019727;28;19924;-82
2023/03/10 02:53:06;;;;;;;;;;;;;;;;;;5014607;28;19917;-83
2023/03/10 02:55:52;;;;;;;;;;;;;;;;;;5019299;28;19914;-83
2023/03/10 02:58:39;;;;;;;;;;;;;;;;;;5017458;28;19929;-83
2023/03/10 03:01:25;;;;;;;;;;;;;;;;;;5017684;28;19913;-82
2023/03/10 03:04:12;;;;;;;;;;;;;;;;;;5018167;28;19932;-83
2023/03/10 03:06:58;;;;;;;;;;;;;;;;;;5017399;28;20388;-83
2023/03/10 03:09:45;;;;;;;;;;;;;;;;;;5019293;28;19928;-83
2023/03/10 03:12:31;;;;;;;;;;;;;;;;;;5016289;28;19917;-83
2023/03/10 03:15:18;;;;;;;;;;;;;;;;;;5008936;28;20292;-84
2023/03/10 03:18:04;;;;;;;;;;;;;;;;;;5015560;28;20390;-83
2023/03/10 03:20:51;;;;;;;;;;;;;;;;;;5016841;28;19926;-84
2023/03/10 03:23:37;;;;;;;;;;;;;;;;;;5011759;28;19925;-83
2023/03/10 03:26:25;;;;;;;;;;;;;;;;;;5020834;28;19917;-83
2023/03/10 03:29:12;;;;;;;;;;;;;;;;;;5014093;28;20375;-83
2023/03/10 03:31:59;;;;;;;;;;;;;;;;;;5020397;28;19918;-85
2023/03/10 03:34:45;;;;;;;;;;;;;;;;;;5018650;28;19924;-84
2023/03/10 03:37:32;;;;;;;;;;;;;;;;;;5013287;28;20447;-84
2023/03/10 03:40:18;;;;;;;;;;;;;;;;;;5010854;28;19929;-83
2023/03/10 03:43:05;;;;;;;;;;;;;;;;;;5016652;28;19933;-83
2023/03/10 03:45:51;;;;;;;;;;;;;;;;;;5009909;28;19932;-83
2023/03/10 03:48:38;;;;;;;;;;;;;;;;;;5017787;28;19921;-84
2023/03/10 03:51:24;;;;;;;;;;;;;;;;;;5016430;28;20300;-83
2023/03/10 03:54:11;;;;;;;;;;;;;;;;;;5021200;28;19917;-84
2023/03/10 03:56:57;;;;;;;;;;;;;;;;;;5023021;28;19940;-84
2023/03/10 03:59:44;;;;;;;;;;;;;;;;;;5018299;28;19929;-85
2023/03/10 04:02:30;;;;;;;;;;;;;;;;;;5016779;28;19917;-84
2023/03/10 04:05:17;;;;;;;;;;;;;;;;;;5016935;28;20378;-82
2023/03/10 04:08:04;;;;;;;;;;;;;;;;;;5014217;28;19917;-83
2023/03/10 04:10:50;;;;;;;;;;;;;;;;;;5015347;28;19918;-83
2023/03/10 04:13:37;;;;;;;;;;;;;;;;;;5016995;28;19928;-84
2023/03/10 04:16:23;;;;;;;;;;;;;;;;;;5019804;28;19924;-83
2023/03/10 04:19:10;;;;;;;;;;;;;;;;;;5017672;28;19936;-83
2023/03/10 04:21:56;;;;;;;;;;;;;;;;;;5020466;28;19921;-84
2023/03/10 04:24:42;;;;;;;;;;;;;;;;;;5007968;28;20001;-84
2023/03/10 04:27:31;;;;;;;;;;;;;;;;;;5014812;28;20414;-83
2023/03/10 04:30:18;;;;;;;;;;;;;;;;;;5014728;28;19921;-83
2023/03/10 04:33:04;;;;;;;;;;;;;;;;;;5011417;28;19924;-82
2023/03/10 04:35:51;;;;;;;;;;;;;;;;;;5004027;28;20280;-84
2023/03/10 04:38:38;;;;;;;;;;;;;;;;;;4991907;28;19925;-82
2023/03/10 04:41:24;;;;;;;;;;;;;;;;;;4992165;28;20305;-84
2023/03/10 04:44:11;;;;;;;;;;;;;;;;;;4986954;28;19932;-83
2023/03/10 04:46:57;;;;;;;;;;;;;;;;;;4994483;28;19917;-82
2023/03/10 04:49:44;;;;;;;;;;;;;;;;;;4994073;28;19921;-84
2023/03/10 04:52:31;;;;;;;;;;;;;;;;;;4988856;28;19929;-83
2023/03/10 04:55:17;;;;;;;;;;;;;;;;;;4995172;28;19925;-81
2023/03/10 04:58:04;;;;;;;;;;;;;;;;;;4990141;28;19926;-82
2023/03/10 05:00:50;;;;;;;;;;;;;;;;;;4992735;28;20514;-82
2023/03/10 05:03:37;;;;;;;;;;;;;;;;;;4999259;28;20602;-83
2023/03/10 05:06:23;;;;;;;;;;;;;;;;;;4977261;28;19921;-82
2023/03/10 05:09:09;;;;;;;;;;;;;;;;;;4998903;28;19962;-82
2023/03/10 05:11:56;;;;;;;;;;;;;;;;;;4993830;28;19926;-81
2023/03/10 05:14:42;;;;;;;;;;;;;;;;;;5012241;28;20372;-81
2023/03/10 05:17:29;;;;;;;;;;;;;;;;;;5013487;28;19917;-83
2023/03/10 05:20:15;;;;;;;;;;;;;;;;;;5010949;28;19954;-83
2023/03/10 05:23:02;;;;;;;;;;;;;;;;;;5015567;28;19921;-83
2023/03/10 05:25:48;;;;;;;;;;;;;;;;;;5015131;28;19928;-81
2023/03/10 05:28:35;;;;;;;;;;;;;;;;;;5011641;28;19931;-81
2023/03/10 05:31:25;;;;;;;;;;;;;;;;;;5011790;28;19917;-80
2023/03/10 05:34:12;;;;;;;;;;;;;;;;;;5005826;28;19918;-81
2023/03/10 05:36:59;;;;;;;;;;;;;;;;;;5014330;28;19924;-82
2023/03/10 05:39:45;;;;;;;;;;;;;;;;;;5015174;28;20308;-81
2023/03/10 05:42:32;;;;;;;;;;;;;;;;;;5012311;28;19924;-83
2023/03/10 05:45:18;;;;;;;;;;;;;;;;;;5018031;28;19921;-81
2023/03/10 05:48:05;;;;;;;;;;;;;;;;;;5010041;28;19924;-81
2023/03/10 05:50:51;;;;;;;;;;;;;;;;;;5010326;28;19918;-81
2023/03/10 05:53:38;;;;;;;;;;;;;;;;;;5007542;28;19917;-82
2023/03/10 05:56:24;;;;;;;;;;;;;;;;;;5014543;28;19921;-81
2023/03/10 05:59:11;;;;;;;;;;;;;;;;;;5011662;28;19933;-81
2023/03/10 06:01:57;;;;;;;;;;;;;;;;;;5017505;28;19937;-81
2023/03/10 06:04:44;;;;;;;;;;;;;;;;;;5017050;28;19921;-81
2023/03/10 06:07:30;;;;;;;;;;;;;;;;;;5018467;28;19924;-81
2023/03/10 06:10:17;;;;;;;;;;;;;;;;;;5013989;28;19926;-80
2023/03/10 06:13:03;;;;;;;;;;;;;;;;;;5012058;28;19917;-80
2023/03/10 06:15:50;;;;;;;;;;;;;;;;;;5014191;28;20131;-81
2023/03/10 06:18:36;;;;;;;;;;;;;;;;;;5009755;28;19925;-81
2023/03/10 06:21:24;;;;;;;;;;;;;;;;;;5020455;28;20284;-81
2023/03/10 06:24:10;;;;;;;;;;;;;;;;;;5013511;28;19917;-81
2023/03/10 06:26:56;;;;;;;;;;;;;;;;;;5015463;28;20004;-80
2023/03/10 06:29:43;;;;;;;;;;;;;;;;;;5014841;28;19928;-81
2023/03/10 06:32:29;;;;;;;;;;;;;;;;;;5013431;28;19921;-80
2023/03/10 06:35:16;;;;;;;;;;;;;;;;;;5024937;28;19921;-77
2023/03/10 06:38:02;;;;;;;;;;;;;;;;;;5015481;28;19924;-81
2023/03/10 06:40:49;;;;;;;;;;;;;;;;;;5018858;28;19932;-80
2023/03/10 06:43:35;;;;;;;;;;;;;;;;;;5012068;28;19917;-80
2023/03/10 06:46:24;;;;;;;;;;;;;;;;;;5012460;28;19926;-80
2023/03/10 06:49:10;;;;;;;;;;;;;;;;;;5017381;28;19928;-81
2023/03/10 06:51:57;;;;;;;;;;;;;;;;;;5016785;28;19929;-82
2023/03/10 06:54:43;;;;;;;;;;;;;;;;;;5019466;28;19921;-83
2023/03/10 06:57:30;;;;;;;;;;;;;;;;;;5014727;28;19922;-80
2023/03/10 07:00:17;;;;;;;;;;;;;;;;;;5015131;28;19940;-78
2023/03/10 07:03:03;;;;;;;;;;;;;;;;;;5020260;28;19929;-80
2023/03/10 07:05:50;;;;;;;;;;;;;;;;;;5016893;28;20289;-80
2023/03/10 07:08:36;;;;;;;;;;;;;;;;;;5022653;28;19921;-80
2023/03/10 07:11:23;;;;;;;;;;;;;;;;;;5009464;28;20379;-79
2023/03/10 07:14:09;;;;;;;;;;;;;;;;;;5020787;28;19918;-80
2023/03/10 07:16:56;;;;;;;;;;;;;;;;;;5015173;28;19920;-80
2023/03/10 07:19:43;;;;;;;;;;;;;;;;;;5015415;28;19929;-80
2023/03/10 07:22:29;;;;;;;;;;;;;;;;;;5019312;28;20596;-80
2023/03/10 07:25:16;;;;;;;;;;;;;;;;;;5021952;28;19917;-80
2023/03/10 07:28:02;;;;;;;;;;;;;;;;;;5011040;28;19921;-80
2023/03/10 07:30:49;;;;;;;;;;;;;;;;;;5016498;28;19925;-80
2023/03/10 07:33:35;;;;;;;;;;;;;;;;;;5017201;28;19917;-80
2023/03/10 07:36:22;;;;;;;;;;;;;;;;;;5018875;28;20094;-80
2023/03/10 07:39:09;;;;;;;;;;;;;;;;;;5017576;28;19925;-81
2023/03/10 07:41:55;;;;;;;;;;;;;;;;;;5011981;28;19925;-80
2023/03/10 07:44:42;;;;;;;;;;;;;;;;;;5015945;28;20411;-80
2023/03/10 07:47:28;;;;;;;;;;;;;;;;;;5015258;28;19939;-80
2023/03/10 07:50:15;;;;;;;;;;;;;;;;;;5012549;28;19921;-81
2023/03/10 07:53:02;;;;;;;;;;;;;;;;;;5020383;28;19928;-81
2023/03/10 07:55:48;;;;;;;;;;;;;;;;;;5017955;28;20266;-82
2023/03/10 07:58:35;;;;;;;;;;;;;;;;;;5023286;28;19940;-81
2023/03/10 08:01:21;;;;;;;;;;;;;;;;;;5011050;28;19920;-79
2023/03/10 08:04:08;;;;;;;;;;;;;;;;;;5015012;28;19921;-81
2023/03/10 08:06:54;;;;;;;;;;;;;;;;;;5008719;28;19913;-81
2023/03/10 08:09:41;;;;;;;;;;;;;;;;;;5022790;28;19925;-80
2023/03/10 08:12:27;;;;;;;;;;;;;;;;;;5020096;28;20133;-80
2023/03/10 08:15:14;;;;;;;;;;;;;;;;;;5009074;28;19918;-81
2023/03/10 08:18:04;;;;;;;;;;;;;;;;;;5020749;28;19933;-81
2023/03/10 08:20:50;;;;;;;;;;;;;;;;;;5012564;28;19922;-81
2023/03/10 08:23:36;;;;;;;;;;;;;;;;;;5022188;28;19925;-81
2023/03/10 08:26:23;;;;;;;;;;;;;;;;;;5016631;28;19917;-80
2023/03/10 08:29:09;;;;;;;;;;;;;;;;;;5012832;28;19917;-81
2023/03/10 08:31:56;;;;;;;;;;;;;;;;;;5013041;28;20044;-81
2023/03/10 08:34:42;;;;;;;;;;;;;;;;;;5015002;28;20272;-81
2023/03/10 08:37:29;;;;;;;;;;;;;;;;;;5017865;28;19924;-80
2023/03/10 08:40:15;;;;;;;;;;;;;;;;;;5015304;28;20376;-82
2023/03/10 08:43:02;;;;;;;;;;;;;;;;;;5014242;28;20376;-82
2023/03/10 08:45:48;;;;;;;;;;;;;;;;;;5018202;28;20405;-82
2023/03/10 08:48:35;;;;;;;;;;;;;;;;;;5020899;28;19921;-82
2023/03/10 08:51:21;;;;;;;;;;;;;;;;;;5012727;28;19917;-81
2023/03/10 08:54:08;;;;;;;;;;;;;;;;;;5018629;28;19921;-81
2023/03/10 08:56:54;;;;;;;;;;;;;;;;;;5010025;28;19924;-80
2023/03/10 08:59:41;;;;;;;;;;;;;;;;;;5021023;28;19929;-80
2023/03/10 09:02:28;;;;;;;;;;;;;;;;;;5010978;28;19936;-80
2023/03/10 09:05:14;;;;;;;;;;;;;;;;;;5013048;28;20284;-81
2023/03/10 09:08:01;;;;;;;;;;;;;;;;;;5016767;28;19921;-80
2023/03/10 09:10:47;;;;;;;;;;;;;;;;;;5015627;28;19925;-81
2023/03/10 09:13:34;;;;;;;;;;;;;;;;;;5016914;28;20319;-80
2023/03/10 09:16:20;;;;;;;;;;;;;;;;;;5019511;28;19917;-80
2023/03/10 09:19:07;;;;;;;;;;;;;;;;;;5016490;28;19926;-81
2023/03/10 09:21:56;;;;;;;;;;;;;;;;;;5020131;28;19921;-82
2023/03/10 09:24:42;;;;;;;;;;;;;;;;;;5016998;28;19958;-81
2023/03/10 09:27:29;;;;;;;;;;;;;;;;;;5015602;28;19921;-81
2023/03/10 09:30:16;;;;;;;;;;;;;;;;;;5017444;28;19917;-80
2023/03/10 09:33:03;;;;;;;;;;;;;;;;;;5005455;28;19925;-80
2023/03/10 09:35:49;;;;;;;;;;;;;;;;;;5005221;28;19955;-81
2023/03/10 09:38:36;;;;;;;;;;;;;;;;;;5011508;28;24829;-80
2023/03/10 09:41:22;;;;;;;;;;;;;;;;;;5010158;28;19928;-81
2023/03/10 09:44:10;;;;;;;;;;;;;;;;;;5010861;28;19924;-80
2023/03/10 09:46:56;;;;;;;;;;;;;;;;;;5016924;28;19997;-80
2023/03/10 09:49:43;;;;;;;;;;;;;;;;;;5011816;28;19918;-80
2023/03/10 09:52:29;;;;;;;;;;;;;;;;;;5006023;28;19917;-80
2023/03/10 09:55:16;;;;;;;;;;;;;;;;;;5009300;28;19913;-81
2023/03/10 09:58:03;;;;;;;;;;;;;;;;;;5022292;28;19925;-81
2023/03/10 10:00:49;;;;;;;;;;;;;;;;;;5012031;28;19929;-81
2023/03/10 10:03:36;;;;;;;;;;;;;;;;;;5006453;28;20403;-80
2023/03/10 10:06:22;;;;;;;;;;;;;;;;;;5014824;28;19921;-81
2023/03/10 10:09:09;;;;;;;;;;;;;;;;;;5018751;28;19921;-78
2023/03/10 10:11:55;;;;;;;;;;;;;;;;;;5021132;28;20292;-81
2023/03/10 10:14:42;;;;;;;;;;;;;;;;;;5023609;28;19917;-80
2023/03/10 10:17:28;;;;;;;;;;;;;;;;;;5017821;28;19921;-81
2023/03/10 10:20:15;;;;;;;;;;;;;;;;;;5019082;28;19968;-81
2023/03/10 10:23:01;;;;;;;;;;;;;;;;;;5013636;28;19913;-81
2023/03/10 10:25:48;;;;;;;;;;;;;;;;;;5008676;28;20442;-81
2023/03/10 10:28:34;;;;;;;;;;;;;;;;;;5015714;28;20312;-81
2023/03/10 10:31:21;;;;;;;;;;;;;;;;;;5022421;28;19948;-81
2023/03/10 10:34:07;;;;;;;;;;;;;;;;;;5019373;28;19920;-81
2023/03/10 10:36:54;;;;;;;;;;;;;;;;;;5020061;28;19919;-82
2023/03/10 10:39:40;;;;;;;;;;;;;;;;;;5019805;28;19932;-83
2023/03/10 10:42:27;;;;;;;;;;;;;;;;;;5016364;28;19924;-86
2023/03/10 10:45:13;;;;;;;;;;;;;;;;;;5012791;28;19917;-79
2023/03/10 10:48:00;;;;;;;;;;;;;;;;;;5019574;28;19921;-78
2023/03/10 10:50:46;;;;;;;;;;;;;;;;;;5019567;28;19913;-77
2023/03/10 10:53:33;;;;;;;;;;;;;;;;;;5013240;28;19925;-77
2023/03/10 10:56:19;;;;;;;;;;;;;;;;;;5020573;28;19921;-77
2023/03/10 10:59:06;;;;;;;;;;;;;;;;;;5023175;28;19936;-77
2023/03/10 11:01:52;;;;;;;;;;;;;;;;;;5017162;28;19918;-78
2023/03/10 11:04:39;;;;;;;;;;;;;;;;;;5012331;28;20290;-78
2023/03/10 11:07:26;;;;;;;;;;;;;;;;;;5015970;28;20365;-77
2023/03/10 11:10:13;;;;;;;;;;;;;;;;;;5015354;28;19917;-78
2023/03/10 11:12:59;;;;;;;;;;;;;;;;;;5020609;28;19924;-78
2023/03/10 11:15:46;;;;;;;;;;;;;;;;;;5011836;28;19921;-80
2023/03/10 11:18:32;;;;;;;;;;;;;;;;;;5016773;28;20694;-80
2023/03/10 11:21:19;;;;;;;;;;;;;;;;;;5014162;28;19929;-79
2023/03/10 11:24:05;;;;;;;;;;;;;;;;;;5014414;28;20627;-80
2023/03/10 11:26:52;;;;;;;;;;;;;;;;;;5013518;28;19921;-80
2023/03/10 11:29:38;;;;;;;;;;;;;;;;;;5016576;28;19925;-81
2023/03/10 11:32:25;;;;;;;;;;;;;;;;;;5009931;28;20284;-79
2023/03/10 11:35:11;;;;;;;;;;;;;;;;;;5018066;28;19913;-80
2023/03/10 11:37:58;;;;;;;;;;;;;;;;;;5014986;28;19917;-80
2023/03/10 11:40:47;;;;;;;;;;;;;;;;;;5016370;28;20483;-80
2023/03/10 11:43:33;;;;;;;;;;;;;;;;;;5021027;28;19928;-80
2023/03/10 11:46:20;;;;;;;;;;;;;;;;;;5013775;28;19913;-80
2023/03/10 11:49:06;;;;;;;;;;;;;;;;;;5017293;28;19924;-80
2023/03/10 11:51:53;;;;;;;;;;;;;;;;;;5020890;28;19923;-81
2023/03/10 11:54:39;;;;;;;;;;;;;;;;;;5022107;28;20907;-81
2023/03/10 11:57:26;;;;;;;;;;;;;;;;;;5023523;28;19923;-81
2023/03/10 12:00:12;;;;;;;;;;;;;;;;;;5023667;28;19921;-81
2023/03/10 12:02:59;;;;;;;;;;;;;;;;;;5013472;28;19925;-81
2023/03/10 12:05:45;;;;;;;;;;;;;;;;;;5009832;28;19913;-81
2023/03/10 12:08:32;;;;;;;;;;;;;;;;;;5011198;28;19921;-81
2023/03/10 12:11:18;;;;;;;;;;;;;;;;;;5007165;28;19917;-81
2023/03/10 12:14:05;;;;;;;;;;;;;;;;;;5016559;28;19917;-81
2023/03/10 12:16:51;;;;;;;;;;;;;;;;;;5009283;28;19944;-80
2023/03/10 12:19:38;;;;;;;;;;;;;;;;;;5016929;28;19932;-80
2023/03/10 12:22:24;;;;;;;;;;;;;;;;;;5016288;28;20062;-79
2023/03/10 12:25:11;;;;;;;;;;;;;;;;;;5018067;28;19914;-80
2023/03/10 12:27:57;;;;;;;;;;;;;;;;;;5019969;28;19928;-80
2023/03/10 12:30:46;;;;;;;;;;;;;;;;;;5014388;28;20354;-80
2023/03/10 12:33:36;;;;;;;;;;;;;;;;;;5016566;28;19928;-81
2023/03/10 12:36:23;;;;;;;;;;;;;;;;;;5019289;28;19924;-81
2023/03/10 12:39:09;;;;;;;;;;;;;;;;;;5014699;28;20463;-81
2023/03/10 12:41:56;;;;;;;;;;;;;;;;;;5008125;28;19936;-81
2023/03/10 12:44:42;;;;;;;;;;;;;;;;;;5012456;28;19921;-81
2023/03/10 12:47:29;;;;;;;;;;;;;;;;;;5014069;28;19925;-81
2023/03/10 12:50:15;;;;;;;;;;;;;;;;;;5019565;28;19924;-81
2023/03/10 12:53:02;;;;;;;;;;;;;;;;;;5017381;28;19921;-81
2023/03/10 12:55:48;;;;;;;;;;;;;;;;;;5012972;28;19920;-80
2023/03/10 12:58:35;;;;;;;;;;;;;;;;;;5010612;28;19929;-80
2023/03/10 13:01:21;;;;;;;;;;;;;;;;;;5017964;28;19921;-80
2023/03/10 13:04:08;;;;;;;;;;;;;;;;;;5019096;28;19921;-81
2023/03/10 13:06:55;;;;;;;;;;;;;;;;;;5014269;28;19918;-80
2023/03/10 13:09:42;;;;;;;;;;;;;;;;;;5015355;28;19917;-80
2023/03/10 13:12:29;;;;;;;;;;;;;;;;;;5012037;28;19921;-79
2023/03/10 13:15:16;;;;;;;;;;;;;;;;;;5015534;28;19917;-80
2023/03/10 13:18:02;;;;;;;;;;;;;;;;;;5014740;28;20291;-80
2023/03/10 13:20:49;;;;;;;;;;;;;;;;;;5014980;28;19966;-80
2023/03/10 13:23:35;;;;;;;;;;;;;;;;;;5017853;28;19929;-80
2023/03/10 13:26:23;;;;;;;;;;;;;;;;;;5012625;28;20450;-80
2023/03/10 13:29:09;;;;;;;;;;;;;;;;;;5014333;28;19928;-84
2023/03/10 13:31:56;;;;;;;;;;;;;;;;;;5013178;28;19925;-84
2023/03/10 13:34:42;;;;;;;;;;;;;;;;;;5017067;28;19917;-83
2023/03/10 13:37:29;;;;;;;;;;;;;;;;;;5010523;28;20118;-85
2023/03/10 13:40:16;;;;;;;;;;;;;;;;;;5013696;28;19929;-85
2023/03/10 13:43:02;;;;;;;;;;;;;;;;;;5015756;28;19959;-86
2023/03/10 13:45:49;;;;;;;;;;;;;;;;;;5014167;28;19924;-86
2023/03/10 13:48:35;;;;;;;;;;;;;;;;;;5016065;28;19931;-89
2023/03/10 13:51:22;;;;;;;;;;;;;;;;;;5008962;28;19913;-84
2023/03/10 13:54:08;;;;;;;;;;;;;;;;;;5011046;28;19948;-87
2023/03/10 13:56:55;;;;;;;;;;;;;;;;;;5006700;28;19924;-86
2023/03/10 13:59:41;;;;;;;;;;;;;;;;;;5012734;28;19936;-86
2023/03/10 14:02:28;;;;;;;;;;;;;;;;;;5005043;28;19921;-90
2023/03/10 14:05:14;;;;;;;;;;;;;;;;;;5013198;28;19917;-87
2023/03/10 14:08:01;;;;;;;;;;;;;;;;;;5020863;28;19924;-86
2023/03/10 14:10:47;;;;;;;;;;;;;;;;;;5013184;28;19924;-87
2023/03/10 14:13:33;;;;;;;;;;;;;;;;;;5008415;28;20301;-87
2023/03/10 14:16:20;;;;;;;;;;;;;;;;;;5009741;28;19924;-90
2023/03/10 14:19:06;;;;;;;;;;;;;;;;;;5011734;28;19917;-82
2023/03/10 14:21:53;;;;;;;;;;;;;;;;;;5014745;28;19918;-77
2023/03/10 14:24:39;;;;;;;;;;;;;;;;;;5009593;28;19940;-83
2023/03/10 14:27:26;;;;;;;;;;;;;;;;;;5015409;28;19917;-82
2023/03/10 14:30:12;;;;;;;;;;;;;;;;;;5015217;28;20368;-83
2023/03/10 14:32:59;;;;;;;;;;;;;;;;;;5012458;28;19921;-88
2023/03/10 14:35:45;;;;;;;;;;;;;;;;;;5015353;28;19924;-85
2023/03/10 14:38:32;;;;;;;;;;;;;;;;;;5013857;28;20388;-85
2023/03/10 14:41:18;;;;;;;;;;;;;;;;;;5006502;28;19933;-84
2023/03/10 14:44:05;;;;;;;;;;;;;;;;;;5012833;28;20297;-85
2023/03/10 14:46:51;;;;;;;;;;;;;;;;;;5009422;28;19918;-85
2023/03/10 14:49:38;;;;;;;;;;;;;;;;;;5009661;28;19925;-84
2023/03/10 14:52:24;;;;;;;;;;;;;;;;;;5009929;28;19932;-84
2023/03/10 14:55:11;;;;;;;;;;;;;;;;;;5019949;28;20308;-85
2023/03/10 14:57:57;;;;;;;;;;;;;;;;;;5014810;28;19928;-84
2023/03/10 15:00:44;;;;;;;;;;;;;;;;;;5012630;28;19932;-84
2023/03/10 15:03:30;;;;;;;;;;;;;;;;;;5010940;28;19921;-84
2023/03/10 15:06:17;;;;;;;;;;;;;;;;;;5012479;28;20377;-86
2023/03/10 15:09:03;;;;;;;;;;;;;;;;;;5017184;28;19921;-83
2023/03/10 15:11:50;;;;;;;;;;;;;;;;;;5015764;28;19924;-83
2023/03/10 15:14:36;;;;;;;;;;;;;;;;;;5016341;28;19921;-83
2023/03/10 15:17:23;;;;;;;;;;;;;;;;;;5017345;28;19951;-84
2023/03/10 15:20:12;;;;;;;;;;;;;;;;;;5015215;28;19929;-86
2023/03/10 15:22:59;;;;;;;;;;;;;;;;;;5019462;28;19925;-83
2023/03/10 15:25:46;;;;;;;;;;;;;;;;;;5014465;28;20506;-83
2023/03/10 15:28:32;;;;;;;;;;;;;;;;;;5011359;28;19929;-83
2023/03/10 15:31:18;;;;;;;;;;;;;;;;;;5013988;28;19921;-82
2023/03/10 15:34:06;;;;;;;;;;;;;;;;;;5014379;28;19933;-83
2023/03/10 15:36:52;;;;;;;;;;;;;;;;;;5017094;28;19921;-83
2023/03/10 15:39:38;;;;;;;;;;;;;;;;;;5011399;28;19929;-83
2023/03/10 15:42:25;;;;;;;;;;;;;;;;;;5013684;28;19927;-81
2023/03/10 15:45:11;;;;;;;;;;;;;;;;;;5009064;28;20337;-82
2023/03/10 15:47:58;;;;;;;;;;;;;;;;;;5018151;28;20440;-82
2023/03/10 15:50:47;;;;;;;;;;;;;;;;;;5019616;28;19921;-83
2023/03/10 15:53:34;;;;;;;;;;;;;;;;;;5019163;28;20687;-82
2023/03/10 15:56:20;;;;;;;;;;;;;;;;;;5013522;28;19962;-81
2023/03/10 15:59:07;;;;;;;;;;;;;;;;;;5015320;28;19932;-83
2023/03/10 16:01:53;;;;;;;;;;;;;;;;;;5019154;28;19926;-82
2023/03/10 16:04:41;;;;;;;;;;;;;;;;;;5009770;28;19956;-82
2023/03/10 16:07:27;;;;;;;;;;;;;;;;;;5016857;28;19928;-81
2023/03/10 16:10:13;;;;;;;;;;;;;;;;;;5012693;28;19921;-83
2023/03/10 16:13:00;;;;;;;;;;;;;;;;;;5009574;28;20384;-81
2023/03/10 16:15:46;;;;;;;;;;;;;;;;;;5009806;28;19919;-81
2023/03/10 16:18:33;;;;;;;;;;;;;;;;;;5020972;28;19921;-84
2023/03/10 16:21:20;;;;;;;;;;;;;;;;;;5012252;28;19937;-83
2023/03/10 16:24:06;;;;;;;;;;;;;;;;;;5014044;28;19925;-86
2023/03/10 16:26:53;;;;;;;;;;;;;;;;;;5011747;28;19925;-83
2023/03/10 16:29:39;;;;;;;;;;;;;;;;;;5014121;28;19925;-82
2023/03/10 16:32:26;;;;;;;;;;;;;;;;;;5016554;28;19951;-83
2023/03/10 16:35:12;;;;;;;;;;;;;;;;;;5013723;28;19917;-83
2023/03/10 16:37:59;;;;;;;;;;;;;;;;;;5012723;28;19917;-85
2023/03/10 16:40:47;;;;;;;;;;;;;;;;;;5016316;28;19929;-89
2023/03/10 16:43:33;;;;;;;;;;;;;;;;;;5021246;28;19943;-84
2023/03/10 16:46:23;;;;;;;;;;;;;;;;;;5023243;28;19921;-86
2023/03/10 16:48:59;;;;;;;;;;;;;;;;;;5025777;28;19924;-85
2023/03/10 16:51:44;;;;;;;;;;;;;;;;;;5022037;28;19993;-83
2023/03/10 16:54:30;;;;;;;;;;;;;;;;;;5018068;28;19921;-84
2023/03/10 16:57:17;;;;;;;;;;;;;;;;;;5021287;28;19913;-74
2023/03/10 17:00:04;;;;;;;;;;;;;;;;;;5013654;28;19925;-87
2023/03/10 17:02:51;;;;;;;;;;;;;;;;;;5014100;28;19928;-88
2023/03/10 17:05:38;;;;;;;;;;;;;;;;;;5008517;28;19926;-88
2023/03/10 17:08:24;;;;;;;;;;;;;;;;;;5019188;28;19921;-89
2023/03/10 17:11:10;;;;;;;;;;;;;;;;;;5021277;28;19921;-88
2023/03/10 17:13:57;;;;;;;;;;;;;;;;;;5016121;28;19921;-84
2023/03/10 17:16:44;;;;;;;;;;;;;;;;;;5012621;28;20388;-85
2023/03/10 17:19:30;;;;;;;;;;;;;;;;;;5012973;28;19924;-82
2023/03/10 17:22:17;;;;;;;;;;;;;;;;;;5013079;28;19918;-79
2023/03/10 17:25:03;;;;;;;;;;;;;;;;;;5013513;28;19921;-82
2023/03/10 17:27:51;;;;;;;;;;;;;;;;;;5010547;28;19921;-84
2023/03/10 17:30:38;;;;;;;;;;;;;;;;;;5016773;28;19943;-84
2023/03/10 17:33:25;;;;;;;;;;;;;;;;;;5009335;28;19921;-82
2023/03/10 17:36:11;;;;;;;;;;;;;;;;;;5011863;28;19925;-83
2023/03/10 17:38:58;;;;;;;;;;;;;;;;;;5008289;28;19921;-83
2023/03/10 17:41:44;;;;;;;;;;;;;;;;;;5014875;28;19961;-84
2023/03/10 17:44:31;;;;;;;;;;;;;;;;;;5010030;28;20373;-84
2023/03/10 17:47:17;;;;;;;;;;;;;;;;;;5011426;28;19939;-82
2023/03/10 17:50:03;;;;;;;;;;;;;;;;;;5012173;28;20388;-81
2023/03/10 17:52:51;;;;;;;;;;;;;;;;;;5013907;28;19921;-84
2023/03/10 17:55:37;;;;;;;;;;;;;;;;;;5012358;28;20419;-81
2023/03/10 17:58:25;;;;;;;;;;;;;;;;;;5016413;28;19929;-82
2023/03/10 18:01:12;;;;;;;;;;;;;;;;;;5009969;28;20278;-83
2023/03/10 18:03:58;;;;;;;;;;;;;;;;;;5007766;28;19922;-83
2023/03/10 18:06:45;;;;;;;;;;;;;;;;;;5011797;28;19925;-83
2023/03/10 18:09:31;;;;;;;;;;;;;;;;;;5013158;28;20488;-83
2023/03/10 18:12:18;;;;;;;;;;;;;;;;;;5011799;28;20452;-80
2023/03/10 18:15:04;;;;;;;;;;;;;;;;;;5020499;28;19921;-82
2023/03/10 18:17:51;;;;;;;;;;;;;;;;;;5010521;28;19936;-83
2023/03/10 18:20:37;;;;;;;;;;;;;;;;;;5015098;28;19933;-82
2023/03/10 18:23:24;;;;;;;;;;;;;;;;;;5015535;28;20577;-82
2023/03/10 18:26:10;;;;;;;;;;;;;;;;;;5005797;28;19925;-82
2023/03/10 18:28:56;;;;;;;;;;;;;;;;;;5012665;28;20300;-81
2023/03/10 18:31:43;;;;;;;;;;;;;;;;;;5017903;28;19917;-83
2023/03/10 18:34:29;;;;;;;;;;;;;;;;;;5015681;28;19921;-81
2023/03/10 18:37:16;;;;;;;;;;;;;;;;;;5015334;28;19922;-83
2023/03/10 18:40:04;;;;;;;;;;;;;;;;;;5014548;28;20403;-79
2023/03/10 18:42:51;;;;;;;;;;;;;;;;;;5014886;28;19921;-80
2023/03/10 18:45:43;;;;;;;;;;;;;;;;;;5017700;28;20528;-81
2023/03/10 18:48:29;;;;;;;;;;;;;;;;;;5017665;28;19925;-80
2023/03/10 18:51:16;;;;;;;;;;;;;;;;;;5014547;28;20362;-80
2023/03/10 18:54:02;;;;;;;;;;;;;;;;;;5025300;28;19921;-81
2023/03/10 18:56:49;;;;;;;;;;;;;;;;;;5016931;28;19918;-80